createdAt,value
2019-02-27T00:01:49.693Z,94.70
2019-02-27T00:04:16.485Z,94.80
2019-02-27T00:06:47.668Z,95.10
2019-02-27T00:09:15.715Z,95.10
2019-02-27T00:11:46.748Z,95.70
2019-02-27T00:14:15.209Z,95.10
2019-02-27T00:16:44.729Z,95.10
2019-02-27T00:19:14.271Z,94.90
2019-02-27T00:21:43.519Z,95.40
2019-02-27T00:24:13.119Z,94.90
2019-02-27T00:26:42.385Z,95.10
2019-02-27T00:29:11.838Z,95.40
2019-02-27T00:31:45.288Z,95.10
2019-02-27T00:34:11.090Z,95.30
2019-02-27T00:36:39.862Z,96.10
2019-02-27T00:39:08.710Z,95.50
2019-02-27T00:41:37.466Z,95.80
2019-02-27T00:44:06.318Z,95.90
2019-02-27T00:46:35.081Z,96.10
2019-02-27T00:49:03.849Z,96.20
2019-02-27T00:51:32.618Z,96.10
2019-02-27T00:54:01.397Z,96.20
2019-02-27T00:56:30.157Z,96.40
2019-02-27T00:59:00.154Z,96.50
2019-02-27T01:01:29.641Z,96.30
2019-02-27T01:04:00.994Z,96.20
2019-02-27T01:06:28.981Z,96.30
2019-02-27T01:08:57.835Z,96.40
2019-02-27T01:11:26.600Z,96.10
2019-02-27T01:13:55.384Z,96.40
2019-02-27T01:16:24.487Z,96.70
2019-02-27T01:18:53.595Z,96.90
2019-02-27T01:21:22.351Z,96.70
2019-02-27T01:23:51.189Z,96.80
2019-02-27T01:26:19.954Z,96.80
2019-02-27T01:28:49.045Z,96.60
2019-02-27T01:31:17.805Z,96.90
2019-02-27T01:33:46.579Z,97.10
2019-02-27T01:36:15.335Z,96.90
2019-02-27T01:38:44.115Z,96.60
2019-02-27T01:41:12.874Z,96.80
2019-02-27T01:43:41.724Z,96.80
2019-02-27T01:46:10.490Z,97.00
2019-02-27T01:48:42.590Z,97.30
2019-02-27T01:51:09.856Z,97.20
2019-02-27T01:53:40.440Z,97.10
2019-02-27T01:56:09.274Z,97.00
2019-02-27T01:58:38.394Z,96.80
2019-02-27T02:01:07.165Z,97.30
2019-02-27T02:03:35.925Z,97.20
2019-02-27T02:06:04.830Z,97.20
2019-02-27T02:08:33.666Z,97.20
2019-02-27T02:11:02.509Z,97.40
2019-02-27T02:13:42.855Z,97.60
2019-02-27T02:16:34.397Z,97.30
2019-02-27T02:19:29.971Z,97.30
2019-02-27T02:22:30.082Z,97.80
2019-02-27T02:25:35.197Z,97.70
2019-02-27T02:28:54.521Z,98.00
2019-02-27T02:31:45.213Z,98.00
2019-02-27T02:34:46.151Z,98.00
2019-02-27T02:37:38.238Z,98.00
2019-02-27T02:40:30.836Z,97.70
2019-02-27T02:43:40.646Z,98.40
2019-02-27T02:46:18.939Z,98.70
2019-02-27T02:49:23.307Z,98.60
2019-02-27T02:52:26.593Z,98.40
2019-02-27T02:55:13.380Z,98.00
2019-02-27T02:58:12.341Z,98.40
2019-02-27T03:00:52.660Z,98.30
2019-02-27T03:03:42.104Z,98.40
2019-02-27T03:06:44.219Z,98.20
2019-02-27T03:09:30.360Z,98.30
2019-02-27T03:12:29.911Z,98.60
2019-02-27T03:15:20.704Z,98.40
2019-02-27T03:18:19.490Z,98.80
2019-02-27T03:20:58.215Z,98.30
2019-02-27T03:24:07.646Z,98.60
2019-02-27T03:26:51.877Z,98.60
2019-02-27T03:29:53.466Z,98.80
2019-02-27T03:32:43.271Z,98.70
2019-02-27T03:35:39.095Z,98.80
2019-02-27T03:38:55.841Z,98.70
2019-02-27T03:42:04.459Z,98.80
2019-02-27T03:44:49.193Z,98.90
2019-02-27T03:47:26.470Z,98.70
2019-02-27T03:50:34.066Z,98.70
2019-02-27T03:53:24.054Z,98.60
2019-02-27T03:56:25.816Z,98.40
2019-02-27T03:59:34.816Z,98.30
2019-02-27T04:02:28.815Z,99.00
2019-02-27T04:05:28.715Z,99.30
2019-02-27T04:08:43.604Z,99.10
2019-02-27T04:11:08.523Z,98.90
2019-02-27T04:13:37.302Z,98.90
2019-02-27T04:16:06.201Z,98.80
2019-02-27T04:18:33.663Z,98.80
2019-02-27T04:21:02.439Z,98.70
2019-02-27T04:23:31.213Z,98.70
2019-02-27T04:26:05.263Z,98.70
2019-02-27T04:28:30.695Z,98.80
2019-02-27T04:30:59.576Z,98.90
2019-02-27T04:33:28.586Z,99.00
2019-02-27T04:35:57.367Z,99.30
2019-02-27T04:38:27.597Z,99.00
2019-02-27T04:40:57.526Z,99.00
2019-02-27T04:43:26.406Z,99.00
2019-02-27T04:45:55.303Z,99.20
2019-02-27T04:48:24.119Z,99.10
2019-02-27T04:50:53.218Z,99.00
2019-02-27T04:53:22.103Z,99.10
2019-02-27T04:55:51.331Z,99.10
2019-02-27T04:58:20.175Z,99.10
2019-02-27T05:00:49.003Z,99.00
2019-02-27T05:03:18.074Z,99.00
2019-02-27T05:05:47.222Z,99.30
2019-02-27T05:08:16.002Z,99.30
2019-02-27T05:10:44.973Z,99.20
2019-02-27T05:13:13.729Z,99.20
2019-02-27T05:15:42.622Z,99.10
2019-02-27T05:18:11.406Z,99.20
2019-02-27T05:20:40.196Z,99.40
2019-02-27T05:23:09.138Z,99.60
2019-02-27T05:25:38.948Z,99.40
2019-02-27T05:28:07.732Z,99.40
2019-02-27T05:30:36.525Z,99.30
2019-02-27T05:33:05.289Z,99.50
2019-02-27T05:35:34.114Z,99.40
2019-02-27T05:38:02.892Z,99.50
2019-02-27T05:40:31.678Z,99.30
2019-02-27T05:43:00.442Z,99.50
2019-02-27T05:45:31.218Z,99.70
2019-02-27T05:47:59.724Z,99.40
2019-02-27T05:50:28.585Z,99.60
2019-02-27T05:52:57.629Z,99.60
2019-02-27T05:55:26.447Z,99.60
2019-02-27T05:57:55.205Z,99.60
2019-02-27T06:00:24.138Z,99.70
2019-02-27T06:02:53.324Z,99.70
2019-02-27T06:05:22.153Z,99.70
2019-02-27T06:07:50.938Z,99.70
2019-02-27T06:10:20.756Z,99.90
2019-02-27T06:12:49.742Z,99.90
2019-02-27T06:15:18.595Z,99.90
2019-02-27T06:17:49.115Z,99.90
2019-02-27T06:20:17.936Z,99.90
2019-02-27T06:22:46.838Z,99.90
2019-02-27T06:25:21.684Z,99.80
2019-02-27T06:27:47.846Z,99.80
2019-02-27T06:30:17.777Z,99.90
2019-02-27T06:32:46.566Z,99.90
2019-02-27T06:35:15.493Z,99.90
2019-02-27T06:37:44.426Z,99.90
2019-02-27T06:40:14.666Z,99.90
2019-02-27T06:42:43.501Z,99.80
2019-02-27T06:45:13.678Z,99.90
2019-02-27T06:47:42.496Z,99.90
2019-02-27T06:50:12.999Z,99.90
2019-02-27T06:52:42.493Z,99.90
2019-02-27T06:55:13.226Z,99.90
2019-02-27T06:57:42.378Z,99.90
2019-02-27T07:00:16.545Z,99.90
2019-02-27T07:02:45.333Z,99.90
2019-02-27T07:05:14.543Z,99.90
2019-02-27T07:07:43.453Z,99.90
2019-02-27T07:10:13.948Z,99.90
2019-02-27T07:12:42.750Z,99.90
2019-02-27T07:15:16.632Z,99.90
2019-02-27T07:17:45.477Z,99.90
2019-02-27T07:20:14.972Z,99.90
2019-02-27T07:22:46.528Z,99.90
2019-02-27T07:25:14.731Z,99.90
2019-02-27T07:27:43.573Z,99.90
2019-02-27T07:30:15.018Z,99.90
2019-02-27T07:32:44.105Z,99.90
2019-02-27T07:35:12.882Z,99.90
2019-02-27T07:37:41.735Z,99.90
2019-02-27T07:40:12.411Z,99.90
2019-02-27T07:42:41.544Z,99.90
2019-02-27T07:45:12.669Z,99.80
2019-02-27T07:47:41.459Z,99.80
2019-02-27T07:50:11.882Z,99.70
2019-02-27T07:52:40.730Z,99.90
2019-02-27T07:55:21.116Z,99.90
2019-02-27T07:57:40.791Z,99.90
2019-02-27T08:00:15.155Z,99.90
2019-02-27T08:02:43.541Z,99.90
2019-02-27T08:05:12.486Z,99.90
2019-02-27T08:07:41.340Z,99.90
2019-02-27T08:10:12.730Z,99.90
2019-02-27T08:12:41.481Z,99.90
2019-02-27T08:15:13.636Z,99.90
2019-02-27T08:17:42.661Z,99.90
2019-02-27T08:20:11.857Z,99.90
2019-02-27T08:22:40.614Z,99.90
2019-02-27T08:25:10.563Z,99.90
2019-02-27T08:27:43.055Z,99.90
2019-02-27T08:30:18.114Z,99.90
2019-02-27T08:32:47.459Z,99.90
2019-02-27T08:35:16.760Z,99.90
2019-02-27T08:37:45.650Z,99.90
2019-02-27T08:40:14.649Z,99.90
2019-02-27T08:42:43.550Z,99.90
2019-02-27T08:45:19.783Z,99.90
2019-02-27T08:47:44.373Z,99.90
2019-02-27T08:50:14.750Z,99.90
2019-02-27T08:52:44.553Z,98.90
2019-02-27T08:55:19.079Z,95.80
2019-02-27T08:57:44.837Z,93.10
2019-02-27T09:00:16.526Z,87.30
2019-02-27T09:02:45.428Z,82.10
2019-02-27T09:05:19.808Z,76.50
2019-02-27T09:07:45.230Z,74.40
2019-02-27T09:10:14.859Z,75.10
2019-02-27T09:12:45.299Z,74.80
2019-02-27T09:15:14.276Z,72.20
2019-02-27T09:17:43.113Z,71.20
2019-02-27T09:20:13.095Z,69.10
2019-02-27T09:22:41.886Z,67.30
2019-02-27T09:25:10.834Z,65.00
2019-02-27T09:27:39.782Z,64.30
2019-02-27T09:30:10.312Z,57.90
2019-02-27T09:32:39.476Z,53.80
2019-02-27T09:35:08.932Z,50.30
2019-02-27T09:37:39.409Z,49.90
2019-02-27T09:40:10.657Z,44.10
2019-02-27T09:42:39.494Z,41.10
2019-02-27T09:45:18.262Z,37.90
2019-02-27T09:47:47.318Z,34.70
2019-02-27T09:50:24.317Z,29.70
2019-02-27T09:52:53.161Z,28.20
2019-02-27T09:55:22.014Z,27.40
2019-02-27T09:57:50.766Z,26.20
2019-02-27T10:00:31.063Z,24.50
2019-02-27T10:02:59.954Z,23.30
2019-02-27T10:05:28.893Z,22.20
2019-02-27T10:07:57.764Z,20.70
2019-02-27T10:10:26.619Z,20.70
2019-02-27T10:12:55.449Z,19.10
2019-02-27T10:15:25.131Z,18.40
2019-02-27T10:17:55.166Z,18.30
2019-02-27T10:20:23.938Z,18.00
2019-02-27T10:22:53.970Z,17.00
2019-02-27T10:25:22.911Z,16.30
2019-02-27T10:27:51.827Z,16.00
2019-02-27T10:30:20.903Z,16.70
2019-02-27T10:32:49.669Z,16.60
2019-02-27T10:35:18.514Z,16.80
2019-02-27T10:37:50.205Z,16.50
2019-02-27T10:40:19.009Z,15.50
2019-02-27T10:42:50.329Z,15.20
2019-02-27T10:45:18.961Z,14.90
2019-02-27T10:47:47.953Z,13.90
2019-02-27T10:50:16.885Z,13.90
2019-02-27T10:52:45.777Z,13.30
2019-02-27T10:55:14.935Z,12.90
2019-02-27T10:57:43.833Z,11.30
2019-02-27T11:00:32.826Z,11.10
2019-02-27T11:03:01.771Z,9.70
2019-02-27T11:05:31.474Z,9.60
2019-02-27T11:08:00.419Z,9.40
2019-02-27T11:10:29.558Z,9.00
2019-02-27T11:12:58.592Z,8.00
2019-02-27T11:15:27.478Z,8.30
2019-02-27T11:17:56.387Z,8.30
2019-02-27T11:20:25.743Z,7.50
2019-02-27T11:22:54.655Z,7.20
2019-02-27T11:25:23.646Z,7.10
2019-02-27T11:27:52.705Z,7.10
2019-02-27T11:30:23.958Z,7.30
2019-02-27T11:32:56.897Z,7.90
2019-02-27T11:35:25.239Z,7.80
2019-02-27T11:37:53.965Z,7.80
2019-02-27T11:40:23.197Z,7.90
2019-02-27T11:42:52.126Z,7.40
2019-02-27T11:45:24.639Z,7.60
2019-02-27T11:47:52.249Z,7.40
2019-02-27T11:50:21.096Z,6.20
2019-02-27T11:52:50.006Z,6.00
2019-02-27T11:55:18.795Z,5.50
2019-02-27T11:57:47.788Z,4.90
2019-02-27T12:00:21.058Z,4.80
2019-02-27T12:02:50.436Z,4.30
2019-02-27T12:05:19.622Z,4.20
2019-02-27T12:07:51.260Z,3.80
2019-02-27T12:10:20.227Z,3.60
2019-02-27T12:12:49.430Z,3.20
2019-02-27T12:15:18.649Z,3.20
2019-02-27T12:17:47.557Z,2.80
2019-02-27T12:20:18.294Z,3.10
2019-02-27T12:22:47.646Z,2.70
2019-02-27T12:25:16.613Z,2.10
2019-02-27T12:27:49.495Z,1.90
2019-02-27T12:30:17.686Z,2.80
2019-02-27T12:32:46.598Z,2.20
2019-02-27T12:35:20.342Z,2.30
2019-02-27T12:37:49.245Z,2.30
2019-02-27T12:40:23.923Z,2.10
2019-02-27T12:42:49.953Z,2.10
2019-02-27T12:45:20.352Z,2.50
2019-02-27T12:47:49.547Z,3.10
2019-02-27T12:50:20.017Z,3.90
2019-02-27T12:52:49.024Z,4.80
2019-02-27T12:55:20.443Z,5.90
2019-02-27T12:57:52.213Z,6.90
2019-02-27T13:00:22.649Z,7.20
2019-02-27T13:02:51.553Z,6.90
2019-02-27T13:05:20.530Z,6.50
2019-02-27T13:07:49.440Z,6.60
2019-02-27T13:10:19.645Z,6.30
2019-02-27T13:12:49.278Z,5.70
2019-02-27T13:15:20.391Z,5.40
2019-02-27T13:17:49.606Z,5.60
2019-02-27T13:20:20.407Z,5.50
2019-02-27T13:22:49.190Z,5.50
2019-02-27T13:25:18.371Z,6.60
2019-02-27T13:27:47.198Z,6.70
2019-02-27T13:30:17.809Z,6.60
2019-02-27T13:32:46.570Z,6.70
2019-02-27T13:35:15.603Z,6.50
2019-02-27T13:37:44.771Z,6.60
2019-02-27T13:40:15.728Z,6.60
2019-02-27T13:42:44.570Z,6.30
2019-02-27T13:45:15.850Z,6.40
2019-02-27T13:47:44.705Z,6.90
2019-02-27T13:50:14.210Z,6.30
2019-02-27T13:52:44.512Z,6.50
2019-02-27T13:55:14.830Z,6.60
2019-02-27T13:57:43.913Z,7.80
2019-02-27T14:00:21.704Z,7.90
2019-02-27T14:02:50.662Z,7.40
2019-02-27T14:05:19.574Z,7.70
2019-02-27T14:07:48.338Z,8.10
2019-02-27T14:10:20.504Z,8.30
2019-02-27T14:12:47.909Z,8.40
2019-02-27T14:15:17.026Z,8.70
2019-02-27T14:17:45.855Z,8.50
2019-02-27T14:20:16.382Z,9.10
2019-02-27T14:22:45.281Z,9.80
2019-02-27T14:25:16.430Z,9.50
2019-02-27T14:27:47.420Z,9.60
2019-02-27T14:30:21.484Z,9.90
2019-02-27T14:32:50.394Z,9.90
2019-02-27T14:35:19.322Z,9.90
2019-02-27T14:37:50.082Z,10.20
2019-02-27T14:40:19.802Z,10.10
2019-02-27T14:42:53.788Z,10.50
2019-02-27T14:45:20.508Z,12.20
2019-02-27T14:47:49.381Z,12.50
2019-02-27T14:50:19.495Z,12.40
2019-02-27T14:52:49.940Z,13.00
2019-02-27T14:55:19.129Z,12.70
2019-02-27T14:57:50.969Z,13.20
2019-02-27T15:00:21.732Z,12.60
2019-02-27T15:02:52.130Z,13.90
2019-02-27T15:05:21.218Z,14.20
2019-02-27T15:07:53.545Z,15.00
2019-02-27T15:10:21.057Z,14.20
2019-02-27T15:12:53.896Z,14.30
2019-02-27T15:15:22.815Z,13.80
2019-02-27T15:17:51.900Z,14.50
2019-02-27T15:20:21.503Z,14.60
2019-02-27T15:22:52.550Z,15.10
2019-02-27T15:25:21.008Z,15.00
2019-02-27T15:27:49.914Z,15.90
2019-02-27T15:30:20.478Z,16.80
2019-02-27T15:32:49.414Z,16.50
2019-02-27T15:35:21.230Z,16.90
2019-02-27T15:37:49.274Z,17.90
2019-02-27T15:40:19.602Z,19.00
2019-02-27T15:42:48.615Z,18.20
2019-02-27T15:45:18.238Z,19.40
2019-02-27T15:47:47.185Z,20.60
2019-02-27T15:50:22.391Z,21.00
2019-02-27T15:52:48.106Z,21.40
2019-02-27T15:55:17.033Z,22.10
2019-02-27T15:57:45.903Z,22.80
2019-02-27T16:00:18.587Z,23.80
2019-02-27T16:02:47.871Z,24.60
2019-02-27T16:05:16.795Z,24.70
2019-02-27T16:07:49.506Z,25.30
2019-02-27T16:10:17.875Z,26.00
2019-02-27T16:12:46.824Z,27.00
2019-02-27T16:15:16.882Z,27.50
2019-02-27T16:17:46.694Z,28.10
2019-02-27T16:20:16.866Z,28.90
2019-02-27T16:22:45.935Z,29.40
2019-02-27T16:25:19.648Z,30.00
2019-02-27T16:27:47.190Z,31.10
2019-02-27T16:30:17.825Z,31.60
2019-02-27T16:32:48.509Z,32.20
2019-02-27T16:35:17.306Z,32.50
2019-02-27T16:37:46.075Z,33.20
2019-02-27T16:40:17.979Z,33.70
2019-02-27T16:42:46.669Z,33.90
2019-02-27T16:45:16.812Z,36.00
2019-02-27T16:47:45.581Z,36.40
2019-02-27T16:50:23.958Z,36.90
2019-02-27T16:52:49.961Z,38.00
2019-02-27T16:55:19.829Z,39.40
2019-02-27T16:57:49.359Z,39.40
2019-02-27T17:00:21.367Z,39.90
2019-02-27T17:02:50.549Z,40.20
2019-02-27T17:05:19.490Z,40.80
2019-02-27T17:07:48.403Z,41.70
2019-02-27T17:10:19.822Z,42.10
2019-02-27T17:12:48.663Z,42.80
2019-02-27T17:15:17.514Z,43.50
2019-02-27T17:17:46.509Z,43.60
2019-02-27T17:20:16.628Z,44.10
2019-02-27T17:22:45.487Z,44.80
2019-02-27T17:25:14.528Z,45.20
2019-02-27T17:27:43.357Z,46.10
2019-02-27T17:30:15.711Z,47.20
2019-02-27T17:32:44.466Z,48.10
2019-02-27T17:35:13.306Z,48.60
2019-02-27T17:37:42.187Z,48.50
2019-02-27T17:40:11.277Z,48.70
2019-02-27T17:42:40.033Z,49.20
2019-02-27T17:45:12.962Z,49.90
2019-02-27T17:47:40.747Z,50.50
2019-02-27T17:50:09.774Z,50.70
2019-02-27T17:52:38.626Z,51.10
2019-02-27T17:55:07.791Z,51.60
2019-02-27T17:57:36.655Z,52.60
2019-02-27T18:00:07.837Z,52.90
2019-02-27T18:02:36.619Z,53.20
2019-02-27T18:05:05.602Z,54.00
2019-02-27T18:07:34.630Z,54.90
2019-02-27T18:10:03.757Z,54.90
2019-02-27T18:12:32.522Z,54.70
2019-02-27T18:15:01.336Z,55.50
2019-02-27T18:17:34.648Z,55.50
2019-02-27T18:20:01.401Z,55.70
2019-02-27T18:22:30.205Z,56.10
2019-02-27T18:24:59.005Z,56.50
2019-02-27T18:27:28.002Z,56.70
2019-02-27T18:29:56.814Z,57.40
2019-02-27T18:32:26.149Z,57.20
2019-02-27T18:34:55.292Z,58.00
2019-02-27T18:37:24.158Z,58.00
2019-02-27T18:39:52.908Z,58.80
2019-02-27T18:42:21.705Z,58.80
2019-02-27T18:44:50.771Z,59.20
2019-02-27T18:47:19.551Z,59.70
2019-02-27T18:49:51.904Z,60.30
2019-02-27T18:52:21.634Z,59.90
2019-02-27T18:54:49.551Z,61.20
2019-02-27T18:57:18.386Z,60.70
2019-02-27T18:59:47.141Z,61.10
2019-02-27T19:02:19.651Z,62.60
2019-02-27T19:04:47.009Z,61.60
2019-02-27T19:07:17.312Z,63.20
2019-02-27T19:09:47.060Z,63.70
2019-02-27T19:12:16.016Z,63.30
2019-02-27T19:14:44.921Z,63.30
2019-02-27T19:17:13.761Z,63.80
2019-02-27T19:19:42.585Z,64.10
2019-02-27T19:22:11.785Z,64.80
2019-02-27T19:24:40.618Z,64.90
2019-02-27T19:27:09.518Z,65.10
2019-02-27T19:29:38.370Z,65.00
2019-02-27T19:32:07.189Z,66.30
2019-02-27T19:34:36.053Z,65.80
2019-02-27T19:37:05.920Z,67.30
2019-02-27T19:39:34.757Z,67.40
2019-02-27T19:42:03.580Z,68.00
2019-02-27T19:44:32.456Z,67.00
2019-02-27T19:47:01.222Z,67.40
2019-02-27T19:49:30.064Z,68.00
2019-02-27T19:51:58.968Z,68.70
2019-02-27T19:54:27.745Z,68.90
2019-02-27T19:56:56.507Z,69.60
2019-02-27T19:59:25.733Z,69.90
2019-02-27T20:01:54.586Z,69.70
2019-02-27T20:04:23.634Z,71.50
2019-02-27T20:06:52.430Z,69.70
2019-02-27T20:09:21.329Z,70.40
2019-02-27T20:11:50.248Z,71.70
2019-02-27T20:14:19.095Z,71.60
2019-02-27T20:16:47.921Z,71.90
2019-02-27T20:19:22.318Z,71.20
2019-02-27T20:21:47.392Z,72.00
2019-02-27T20:24:16.162Z,72.70
2019-02-27T20:26:44.989Z,72.40
2019-02-27T20:29:13.972Z,73.10
2019-02-27T20:31:42.731Z,73.40
2019-02-27T20:34:11.819Z,74.00
2019-02-27T20:36:40.627Z,73.80
2019-02-27T20:39:10.049Z,74.80
2019-02-27T20:41:40.924Z,74.50
2019-02-27T20:44:09.436Z,75.20
2019-02-27T20:46:38.207Z,74.50
2019-02-27T20:49:07.063Z,75.40
2019-02-27T20:51:39.773Z,75.30
2019-02-27T20:54:06.559Z,75.60
2019-02-27T20:56:36.003Z,77.20
2019-02-27T20:59:05.620Z,76.90
2019-02-27T21:01:34.472Z,77.20
2019-02-27T21:04:03.234Z,77.20
2019-02-27T21:06:31.998Z,76.40
2019-02-27T21:09:00.745Z,77.20
2019-02-27T21:11:30.473Z,78.20
2019-02-27T21:13:59.556Z,78.50
2019-02-27T21:16:28.393Z,78.40
2019-02-27T21:18:57.158Z,77.90
2019-02-27T21:21:25.926Z,78.40
2019-02-27T21:23:54.673Z,79.40
2019-02-27T21:26:23.664Z,80.50
2019-02-27T21:28:58.593Z,80.10
2019-02-27T21:31:26.643Z,80.10
2019-02-27T21:33:53.467Z,81.10
2019-02-27T21:36:22.300Z,81.40
2019-02-27T21:38:51.489Z,80.40
2019-02-27T21:41:20.308Z,81.10
2019-02-27T21:43:49.065Z,80.50
2019-02-27T21:46:17.900Z,81.80
2019-02-27T21:48:46.778Z,83.30
2019-02-27T21:51:15.685Z,83.40
2019-02-27T21:53:44.438Z,84.70
2019-02-27T21:56:15.209Z,83.90
2019-02-27T21:58:43.969Z,84.80
2019-02-27T22:01:12.967Z,83.30
2019-02-27T22:03:41.865Z,84.20
2019-02-27T22:06:10.986Z,84.80
2019-02-27T22:08:40.017Z,85.00
2019-02-27T22:11:08.781Z,85.40
2019-02-27T22:13:37.693Z,84.80
2019-02-27T22:16:06.438Z,85.40
2019-02-27T22:18:35.257Z,85.70
2019-02-27T22:21:04.029Z,84.60
2019-02-27T22:23:32.855Z,85.30
2019-02-27T22:26:03.087Z,86.60
2019-02-27T22:28:32.170Z,85.80
2019-02-27T22:31:06.102Z,85.40
2019-02-27T22:33:31.410Z,86.10
2019-02-27T22:36:00.174Z,88.00
2019-02-27T22:38:28.972Z,87.50
2019-02-27T22:40:57.731Z,87.90
2019-02-27T22:43:26.502Z,88.30
2019-02-27T22:45:55.254Z,88.90
2019-02-27T22:48:27.741Z,87.80
2019-02-27T22:50:54.845Z,88.40
2019-02-27T22:53:26.200Z,88.50
2019-02-27T22:55:54.085Z,88.90
2019-02-27T22:58:22.849Z,88.00
2019-02-27T23:01:04.758Z,89.50
2019-02-27T23:03:36.565Z,89.90
2019-02-27T23:06:05.874Z,90.00
2019-02-27T23:08:34.825Z,90.60
2019-02-27T23:11:03.849Z,90.20
2019-02-27T23:13:32.666Z,90.30
2019-02-27T23:16:01.420Z,90.50
2019-02-27T23:18:31.062Z,90.70
2019-02-27T23:20:59.894Z,90.60
2019-02-27T23:23:28.810Z,90.40
2019-02-27T23:25:57.666Z,90.60
2019-02-27T23:28:26.502Z,90.90
2019-02-27T23:30:55.253Z,91.30
2019-02-27T23:33:24.740Z,91.10
2019-02-27T23:35:53.851Z,91.10
2019-02-27T23:38:22.965Z,90.90
2019-02-27T23:40:51.793Z,91.20
2019-02-27T23:43:20.736Z,91.30
2019-02-27T23:45:49.488Z,91.30
2019-02-27T23:48:18.525Z,91.20
2019-02-27T23:50:47.438Z,91.10
2019-02-27T23:53:16.220Z,91.40
2019-02-27T23:55:45.524Z,91.60
2019-02-27T23:58:14.501Z,91.80
